sensor_id;sensor_type;location;lat;lon;timestamp;P1;durP1;ratioP1;P2;durP2;ratioP2
6723;SDS011;3399;52.530;13.304;2023-04-15T00:00:22;35.03;;;25.33;;
6723;SDS011;3399;52.530;13.304;2023-04-15T00:02:48;31.37;;;24.67;;
6723;SDS011;3399;52.530;13.304;2023-04-15T00:05:14;37.43;;;26.40;;
6723;SDS011;3399;52.530;13.304;2023-04-15T00:07:40;35.37;;;25.43;;
6723;SDS011;3399;52.530;13.304;2023-04-15T00:10:05;34.27;;;25.77;;
6723;SDS011;3399;52.530;13.304;2023-04-15T00:12:31;37.40;;;25.53;;
6723;SDS011;3399;52.530;13.304;2023-04-15T00:14:57;33.13;;;24.23;;
6723;SDS011;3399;52.530;13.304;2023-04-15T00:17:22;41.77;;;26.83;;
6723;SDS011;3399;52.530;13.304;2023-04-15T00:19:48;36.05;;;26.15;;
6723;SDS011;3399;52.530;13.304;2023-04-15T00:22:14;36.53;;;26.67;;
6723;SDS011;3399;52.530;13.304;2023-04-15T00:24:39;32.53;;;23.63;;
6723;SDS011;3399;52.530;13.304;2023-04-15T00:27:05;34.67;;;25.40;;
6723;SDS011;3399;52.530;13.304;2023-04-15T00:29:32;36.97;;;24.87;;
6723;SDS011;3399;52.530;13.304;2023-04-15T00:31:58;35.63;;;26.23;;
6723;SDS011;3399;52.530;13.304;2023-04-15T00:34:24;37.53;;;27.60;;
6723;SDS011;3399;52.530;13.304;2023-04-15T00:36:49;34.40;;;25.47;;
6723;SDS011;3399;52.530;13.304;2023-04-15T00:39:18;34.47;;;23.87;;
6723;SDS011;3399;52.530;13.304;2023-04-15T00:41:43;30.50;;;25.20;;
6723;SDS011;3399;52.530;13.304;2023-04-15T00:44:10;36.27;;;25.90;;
6723;SDS011;3399;52.530;13.304;2023-04-15T00:46:36;32.97;;;24.43;;
6723;SDS011;3399;52.530;13.304;2023-04-15T00:49:03;34.07;;;25.40;;
6723;SDS011;3399;52.530;13.304;2023-04-15T00:51:29;33.50;;;25.13;;
6723;SDS011;3399;52.530;13.304;2023-04-15T00:53:57;35.33;;;26.33;;
6723;SDS011;3399;52.530;13.304;2023-04-15T00:56:23;36.00;;;24.97;;
6723;SDS011;3399;52.530;13.304;2023-04-15T00:58:50;36.63;;;25.53;;
6723;SDS011;3399;52.530;13.304;2023-04-15T01:01:18;36.10;;;26.60;;
6723;SDS011;3399;52.530;13.304;2023-04-15T01:03:46;35.73;;;25.53;;
6723;SDS011;3399;52.530;13.304;2023-04-15T01:06:13;36.17;;;25.43;;
6723;SDS011;3399;52.530;13.304;2023-04-15T01:08:39;34.37;;;24.93;;
6723;SDS011;3399;52.530;13.304;2023-04-15T01:11:05;33.50;;;24.93;;
6723;SDS011;3399;52.530;13.304;2023-04-15T01:13:32;32.50;;;23.87;;
6723;SDS011;3399;52.530;13.304;2023-04-15T01:15:58;31.57;;;24.63;;
6723;SDS011;3399;52.530;13.304;2023-04-15T01:18:25;38.67;;;27.37;;
6723;SDS011;3399;52.530;13.304;2023-04-15T01:20:51;39.17;;;25.90;;
6723;SDS011;3399;52.530;13.304;2023-04-15T01:23:17;41.30;;;26.20;;
6723;SDS011;3399;52.530;13.304;2023-04-15T01:25:43;35.07;;;25.93;;
6723;SDS011;3399;52.530;13.304;2023-04-15T01:28:10;37.03;;;27.57;;
6723;SDS011;3399;52.530;13.304;2023-04-15T01:30:36;40.50;;;28.10;;
6723;SDS011;3399;52.530;13.304;2023-04-15T01:33:01;35.87;;;25.40;;
6723;SDS011;3399;52.530;13.304;2023-04-15T01:35:27;42.33;;;26.13;;
6723;SDS011;3399;52.530;13.304;2023-04-15T01:37:53;36.80;;;26.07;;
6723;SDS011;3399;52.530;13.304;2023-04-15T01:40:23;38.33;;;27.87;;
6723;SDS011;3399;52.530;13.304;2023-04-15T01:42:48;39.57;;;28.40;;
6723;SDS011;3399;52.530;13.304;2023-04-15T01:45:14;41.80;;;28.43;;
6723;SDS011;3399;52.530;13.304;2023-04-15T01:47:40;39.30;;;26.77;;
6723;SDS011;3399;52.530;13.304;2023-04-15T01:50:06;39.83;;;28.10;;
6723;SDS011;3399;52.530;13.304;2023-04-15T01:52:32;35.50;;;25.60;;
6723;SDS011;3399;52.530;13.304;2023-04-15T01:54:57;37.67;;;27.40;;
6723;SDS011;3399;52.530;13.304;2023-04-15T01:57:23;36.13;;;26.80;;
6723;SDS011;3399;52.530;13.304;2023-04-15T01:59:49;39.87;;;26.37;;
6723;SDS011;3399;52.530;13.304;2023-04-15T02:02:15;39.37;;;28.03;;
6723;SDS011;3399;52.530;13.304;2023-04-15T02:04:41;41.57;;;28.57;;
6723;SDS011;3399;52.530;13.304;2023-04-15T02:07:07;38.00;;;25.87;;
6723;SDS011;3399;52.530;13.304;2023-04-15T02:09:32;37.53;;;26.73;;
6723;SDS011;3399;52.530;13.304;2023-04-15T02:11:58;41.57;;;28.03;;
6723;SDS011;3399;52.530;13.304;2023-04-15T02:14:24;37.03;;;26.27;;
6723;SDS011;3399;52.530;13.304;2023-04-15T02:16:50;35.30;;;26.07;;
6723;SDS011;3399;52.530;13.304;2023-04-15T02:19:15;34.20;;;26.83;;
6723;SDS011;3399;52.530;13.304;2023-04-15T02:21:41;39.80;;;26.80;;
6723;SDS011;3399;52.530;13.304;2023-04-15T02:24:06;38.47;;;27.10;;
6723;SDS011;3399;52.530;13.304;2023-04-15T02:26:32;40.13;;;27.67;;
6723;SDS011;3399;52.530;13.304;2023-04-15T02:28:58;38.13;;;28.33;;
6723;SDS011;3399;52.530;13.304;2023-04-15T02:31:24;35.93;;;26.07;;
6723;SDS011;3399;52.530;13.304;2023-04-15T02:33:49;36.97;;;26.57;;
6723;SDS011;3399;52.530;13.304;2023-04-15T02:36:15;37.70;;;25.80;;
6723;SDS011;3399;52.530;13.304;2023-04-15T02:38:41;35.50;;;26.47;;
6723;SDS011;3399;52.530;13.304;2023-04-15T02:41:08;35.90;;;25.27;;
6723;SDS011;3399;52.530;13.304;2023-04-15T02:43:34;39.77;;;27.53;;
6723;SDS011;3399;52.530;13.304;2023-04-15T02:45:59;37.43;;;25.63;;
6723;SDS011;3399;52.530;13.304;2023-04-15T02:48:25;37.40;;;25.77;;
6723;SDS011;3399;52.530;13.304;2023-04-15T02:50:50;39.73;;;28.07;;
6723;SDS011;3399;52.530;13.304;2023-04-15T02:53:16;38.70;;;26.83;;
6723;SDS011;3399;52.530;13.304;2023-04-15T02:55:41;38.30;;;26.87;;
6723;SDS011;3399;52.530;13.304;2023-04-15T02:58:07;43.93;;;27.70;;
6723;SDS011;3399;52.530;13.304;2023-04-15T03:00:32;36.73;;;27.23;;
6723;SDS011;3399;52.530;13.304;2023-04-15T03:03:01;39.50;;;26.60;;
6723;SDS011;3399;52.530;13.304;2023-04-15T03:05:28;33.87;;;26.00;;
6723;SDS011;3399;52.530;13.304;2023-04-15T03:07:53;34.70;;;26.27;;
6723;SDS011;3399;52.530;13.304;2023-04-15T03:10:19;34.53;;;25.10;;
6723;SDS011;3399;52.530;13.304;2023-04-15T03:12:45;34.53;;;26.40;;
6723;SDS011;3399;52.530;13.304;2023-04-15T03:15:11;34.63;;;25.53;;
6723;SDS011;3399;52.530;13.304;2023-04-15T03:17:36;36.43;;;24.30;;
6723;SDS011;3399;52.530;13.304;2023-04-15T03:20:02;32.13;;;24.00;;
6723;SDS011;3399;52.530;13.304;2023-04-15T03:22:29;35.07;;;25.67;;
6723;SDS011;3399;52.530;13.304;2023-04-15T03:24:55;36.77;;;25.13;;
6723;SDS011;3399;52.530;13.304;2023-04-15T03:27:21;35.50;;;24.87;;
6723;SDS011;3399;52.530;13.304;2023-04-15T03:29:46;35.17;;;24.83;;
6723;SDS011;3399;52.530;13.304;2023-04-15T03:32:12;38.80;;;26.30;;
6723;SDS011;3399;52.530;13.304;2023-04-15T03:34:39;37.90;;;26.07;;
6723;SDS011;3399;52.530;13.304;2023-04-15T03:37:05;33.63;;;23.90;;
6723;SDS011;3399;52.530;13.304;2023-04-15T03:39:30;38.10;;;25.83;;
6723;SDS011;3399;52.530;13.304;2023-04-15T03:41:56;35.40;;;23.47;;
6723;SDS011;3399;52.530;13.304;2023-04-15T03:44:22;34.47;;;25.47;;
6723;SDS011;3399;52.530;13.304;2023-04-15T03:46:47;33.63;;;25.37;;
6723;SDS011;3399;52.530;13.304;2023-04-15T03:49:13;33.10;;;24.53;;
6723;SDS011;3399;52.530;13.304;2023-04-15T03:51:38;30.90;;;23.97;;
6723;SDS011;3399;52.530;13.304;2023-04-15T03:54:04;36.63;;;25.00;;
6723;SDS011;3399;52.530;13.304;2023-04-15T03:56:30;30.73;;;24.20;;
6723;SDS011;3399;52.530;13.304;2023-04-15T03:58:55;34.23;;;25.17;;
6723;SDS011;3399;52.530;13.304;2023-04-15T04:01:21;31.87;;;23.33;;
6723;SDS011;3399;52.530;13.304;2023-04-15T04:03:46;32.93;;;23.90;;
6723;SDS011;3399;52.530;13.304;2023-04-15T04:06:12;28.70;;;22.73;;
6723;SDS011;3399;52.530;13.304;2023-04-15T04:08:38;29.93;;;22.77;;
6723;SDS011;3399;52.530;13.304;2023-04-15T04:11:03;33.07;;;23.87;;
6723;SDS011;3399;52.530;13.304;2023-04-15T04:13:29;35.50;;;24.97;;
6723;SDS011;3399;52.530;13.304;2023-04-15T04:15:55;35.07;;;22.47;;
6723;SDS011;3399;52.530;13.304;2023-04-15T04:18:20;34.33;;;23.30;;
6723;SDS011;3399;52.530;13.304;2023-04-15T04:20:46;39.83;;;24.13;;
6723;SDS011;3399;52.530;13.304;2023-04-15T04:23:11;33.70;;;24.43;;
6723;SDS011;3399;52.530;13.304;2023-04-15T04:25:37;30.67;;;23.40;;
6723;SDS011;3399;52.530;13.304;2023-04-15T04:28:03;32.23;;;23.17;;
6723;SDS011;3399;52.530;13.304;2023-04-15T04:30:28;30.90;;;22.17;;
6723;SDS011;3399;52.530;13.304;2023-04-15T04:32:54;31.50;;;22.53;;
6723;SDS011;3399;52.530;13.304;2023-04-15T04:35:19;34.43;;;24.77;;
6723;SDS011;3399;52.530;13.304;2023-04-15T04:37:45;29.47;;;24.10;;
6723;SDS011;3399;52.530;13.304;2023-04-15T04:40:11;34.00;;;23.97;;
6723;SDS011;3399;52.530;13.304;2023-04-15T04:42:37;32.57;;;22.53;;
6723;SDS011;3399;52.530;13.304;2023-04-15T04:45:02;35.53;;;24.13;;
6723;SDS011;3399;52.530;13.304;2023-04-15T04:47:28;30.07;;;22.77;;
6723;SDS011;3399;52.530;13.304;2023-04-15T04:49:54;28.70;;;22.30;;
6723;SDS011;3399;52.530;13.304;2023-04-15T04:52:19;32.13;;;21.97;;
6723;SDS011;3399;52.530;13.304;2023-04-15T04:54:45;32.30;;;22.43;;
6723;SDS011;3399;52.530;13.304;2023-04-15T04:57:11;29.57;;;22.60;;
6723;SDS011;3399;52.530;13.304;2023-04-15T04:59:37;26.80;;;21.17;;
6723;SDS011;3399;52.530;13.304;2023-04-15T05:02:03;26.07;;;20.83;;
6723;SDS011;3399;52.530;13.304;2023-04-15T05:04:28;27.60;;;20.43;;
6723;SDS011;3399;52.530;13.304;2023-04-15T05:06:55;30.00;;;22.13;;
6723;SDS011;3399;52.530;13.304;2023-04-15T05:09:21;27.17;;;21.37;;
6723;SDS011;3399;52.530;13.304;2023-04-15T05:11:47;27.90;;;21.07;;
6723;SDS011;3399;52.530;13.304;2023-04-15T05:14:12;26.97;;;21.53;;
6723;SDS011;3399;52.530;13.304;2023-04-15T05:16:38;29.63;;;21.73;;
6723;SDS011;3399;52.530;13.304;2023-04-15T05:19:03;31.57;;;22.10;;
6723;SDS011;3399;52.530;13.304;2023-04-15T05:21:29;28.17;;;21.27;;
6723;SDS011;3399;52.530;13.304;2023-04-15T05:23:55;25.10;;;20.10;;
6723;SDS011;3399;52.530;13.304;2023-04-15T05:26:21;27.00;;;20.07;;
6723;SDS011;3399;52.530;13.304;2023-04-15T05:28:46;25.63;;;19.87;;
6723;SDS011;3399;52.530;13.304;2023-04-15T05:31:12;24.70;;;18.20;;
6723;SDS011;3399;52.530;13.304;2023-04-15T05:33:38;27.17;;;20.00;;
6723;SDS011;3399;52.530;13.304;2023-04-15T05:36:04;27.83;;;20.33;;
6723;SDS011;3399;52.530;13.304;2023-04-15T05:38:30;26.57;;;19.50;;
6723;SDS011;3399;52.530;13.304;2023-04-15T05:40:55;27.07;;;19.67;;
6723;SDS011;3399;52.530;13.304;2023-04-15T05:43:21;22.70;;;17.93;;
6723;SDS011;3399;52.530;13.304;2023-04-15T05:45:46;26.30;;;19.67;;
6723;SDS011;3399;52.530;13.304;2023-04-15T05:48:12;23.10;;;18.50;;
6723;SDS011;3399;52.530;13.304;2023-04-15T05:50:39;21.03;;;17.47;;
6723;SDS011;3399;52.530;13.304;2023-04-15T05:53:06;20.67;;;16.33;;
6723;SDS011;3399;52.530;13.304;2023-04-15T05:55:32;25.77;;;19.53;;
6723;SDS011;3399;52.530;13.304;2023-04-15T05:57:57;24.60;;;18.00;;
6723;SDS011;3399;52.530;13.304;2023-04-15T06:00:23;20.57;;;17.80;;
6723;SDS011;3399;52.530;13.304;2023-04-15T06:02:48;27.33;;;19.33;;
6723;SDS011;3399;52.530;13.304;2023-04-15T06:05:14;21.27;;;17.03;;
6723;SDS011;3399;52.530;13.304;2023-04-15T06:07:39;25.13;;;16.97;;
6723;SDS011;3399;52.530;13.304;2023-04-15T06:10:05;23.53;;;17.10;;
6723;SDS011;3399;52.530;13.304;2023-04-15T06:12:31;19.87;;;17.17;;
6723;SDS011;3399;52.530;13.304;2023-04-15T06:14:57;21.50;;;16.47;;
6723;SDS011;3399;52.530;13.304;2023-04-15T06:17:22;17.43;;;15.33;;
6723;SDS011;3399;52.530;13.304;2023-04-15T06:19:48;18.30;;;15.87;;
6723;SDS011;3399;52.530;13.304;2023-04-15T06:22:19;17.93;;;15.43;;
6723;SDS011;3399;52.530;13.304;2023-04-15T06:24:45;21.17;;;15.17;;
6723;SDS011;3399;52.530;13.304;2023-04-15T06:27:10;19.70;;;16.57;;
6723;SDS011;3399;52.530;13.304;2023-04-15T06:29:36;17.33;;;15.27;;
6723;SDS011;3399;52.530;13.304;2023-04-15T06:32:01;19.13;;;15.50;;
6723;SDS011;3399;52.530;13.304;2023-04-15T06:34:27;16.90;;;14.23;;
6723;SDS011;3399;52.530;13.304;2023-04-15T06:36:52;18.27;;;15.07;;
6723;SDS011;3399;52.530;13.304;2023-04-15T06:39:18;14.27;;;12.73;;
6723;SDS011;3399;52.530;13.304;2023-04-15T06:41:45;17.23;;;13.23;;
6723;SDS011;3399;52.530;13.304;2023-04-15T06:44:10;16.23;;;13.47;;
6723;SDS011;3399;52.530;13.304;2023-04-15T06:46:36;15.33;;;13.73;;
6723;SDS011;3399;52.530;13.304;2023-04-15T06:49:02;15.23;;;13.23;;
6723;SDS011;3399;52.530;13.304;2023-04-15T06:51:27;20.10;;;13.70;;
6723;SDS011;3399;52.530;13.304;2023-04-15T06:53:53;15.50;;;13.90;;
6723;SDS011;3399;52.530;13.304;2023-04-15T06:56:18;15.43;;;13.90;;
6723;SDS011;3399;52.530;13.304;2023-04-15T06:58:44;16.03;;;12.83;;
6723;SDS011;3399;52.530;13.304;2023-04-15T07:01:10;14.93;;;13.27;;
6723;SDS011;3399;52.530;13.304;2023-04-15T07:03:36;16.33;;;12.20;;
6723;SDS011;3399;52.530;13.304;2023-04-15T07:06:02;16.27;;;11.63;;
6723;SDS011;3399;52.530;13.304;2023-04-15T07:08:30;13.87;;;12.10;;
6723;SDS011;3399;52.530;13.304;2023-04-15T07:10:56;12.77;;;11.43;;
6723;SDS011;3399;52.530;13.304;2023-04-15T07:13:21;16.27;;;11.90;;
6723;SDS011;3399;52.530;13.304;2023-04-15T07:15:47;12.93;;;11.10;;
6723;SDS011;3399;52.530;13.304;2023-04-15T07:18:13;12.70;;;10.47;;
6723;SDS011;3399;52.530;13.304;2023-04-15T07:20:38;12.97;;;11.23;;
6723;SDS011;3399;52.530;13.304;2023-04-15T07:23:04;12.63;;;10.70;;
6723;SDS011;3399;52.530;13.304;2023-04-15T07:25:29;13.60;;;11.10;;
6723;SDS011;3399;52.530;13.304;2023-04-15T07:27:55;10.63;;;9.33;;
6723;SDS011;3399;52.530;13.304;2023-04-15T07:30:20;11.67;;;10.37;;
6723;SDS011;3399;52.530;13.304;2023-04-15T07:32:46;12.00;;;10.20;;
6723;SDS011;3399;52.530;13.304;2023-04-15T07:35:11;11.63;;;10.43;;
6723;SDS011;3399;52.530;13.304;2023-04-15T07:37:37;11.53;;;10.43;;
6723;SDS011;3399;52.530;13.304;2023-04-15T07:40:03;11.87;;;10.00;;
6723;SDS011;3399;52.530;13.304;2023-04-15T07:42:30;11.77;;;10.67;;
6723;SDS011;3399;52.530;13.304;2023-04-15T07:44:56;12.13;;;10.83;;
6723;SDS011;3399;52.530;13.304;2023-04-15T07:47:21;13.07;;;9.90;;
6723;SDS011;3399;52.530;13.304;2023-04-15T07:49:47;11.03;;;9.93;;
6723;SDS011;3399;52.530;13.304;2023-04-15T07:52:13;12.80;;;10.43;;
6723;SDS011;3399;52.530;13.304;2023-04-15T07:54:38;12.97;;;10.00;;
6723;SDS011;3399;52.530;13.304;2023-04-15T07:57:04;14.37;;;10.60;;
6723;SDS011;3399;52.530;13.304;2023-04-15T07:59:29;12.77;;;11.03;;
6723;SDS011;3399;52.530;13.304;2023-04-15T08:01:57;13.63;;;10.93;;
6723;SDS011;3399;52.530;13.304;2023-04-15T08:04:23;12.00;;;10.57;;
6723;SDS011;3399;52.530;13.304;2023-04-15T08:06:48;12.37;;;11.07;;
6723;SDS011;3399;52.530;13.304;2023-04-15T08:09:14;13.23;;;10.50;;
6723;SDS011;3399;52.530;13.304;2023-04-15T08:11:40;12.43;;;11.10;;
6723;SDS011;3399;52.530;13.304;2023-04-15T08:14:06;12.63;;;10.87;;
6723;SDS011;3399;52.530;13.304;2023-04-15T08:16:31;12.67;;;11.47;;
6723;SDS011;3399;52.530;13.304;2023-04-15T08:18:57;12.30;;;11.00;;
6723;SDS011;3399;52.530;13.304;2023-04-15T08:21:23;16.03;;;11.20;;
6723;SDS011;3399;52.530;13.304;2023-04-15T08:23:49;12.23;;;11.07;;
6723;SDS011;3399;52.530;13.304;2023-04-15T08:26:16;12.90;;;11.10;;
6723;SDS011;3399;52.530;13.304;2023-04-15T08:28:43;12.70;;;11.40;;
6723;SDS011;3399;52.530;13.304;2023-04-15T08:31:09;16.60;;;11.70;;
6723;SDS011;3399;52.530;13.304;2023-04-15T08:33:35;12.10;;;10.70;;
6723;SDS011;3399;52.530;13.304;2023-04-15T08:36:01;12.17;;;10.87;;
6723;SDS011;3399;52.530;13.304;2023-04-15T08:38:27;13.30;;;11.97;;
6723;SDS011;3399;52.530;13.304;2023-04-15T08:40:52;16.30;;;11.80;;
6723;SDS011;3399;52.530;13.304;2023-04-15T08:43:22;14.53;;;11.23;;
6723;SDS011;3399;52.530;13.304;2023-04-15T08:45:54;13.43;;;11.70;;
6723;SDS011;3399;52.530;13.304;2023-04-15T08:48:20;15.17;;;13.17;;
6723;SDS011;3399;52.530;13.304;2023-04-15T08:50:48;14.27;;;12.53;;
6723;SDS011;3399;52.530;13.304;2023-04-15T08:53:15;14.33;;;12.80;;
6723;SDS011;3399;52.530;13.304;2023-04-15T08:55:45;13.87;;;12.47;;
6723;SDS011;3399;52.530;13.304;2023-04-15T08:58:12;14.80;;;11.40;;
6723;SDS011;3399;52.530;13.304;2023-04-15T09:00:41;12.40;;;11.17;;
6723;SDS011;3399;52.530;13.304;2023-04-15T09:03:07;13.77;;;12.47;;
6723;SDS011;3399;52.530;13.304;2023-04-15T09:05:33;14.00;;;12.60;;
6723;SDS011;3399;52.530;13.304;2023-04-15T09:08:00;13.33;;;12.03;;
6723;SDS011;3399;52.530;13.304;2023-04-15T09:10:26;14.13;;;12.67;;
6723;SDS011;3399;52.530;13.304;2023-04-15T09:12:52;16.30;;;13.87;;
6723;SDS011;3399;52.530;13.304;2023-04-15T09:15:18;17.97;;;12.37;;
6723;SDS011;3399;52.530;13.304;2023-04-15T09:17:44;13.33;;;11.93;;
6723;SDS011;3399;52.530;13.304;2023-04-15T09:20:14;13.50;;;12.10;;
6723;SDS011;3399;52.530;13.304;2023-04-15T09:22:43;12.77;;;11.50;;
6723;SDS011;3399;52.530;13.304;2023-04-15T09:27:51;13.00;;;11.60;;
6723;SDS011;3399;52.530;13.304;2023-04-15T09:30:20;14.30;;;12.57;;
6723;SDS011;3399;52.530;13.304;2023-04-15T09:32:53;15.80;;;13.47;;
6723;SDS011;3399;52.530;13.304;2023-04-15T09:35:20;14.03;;;12.53;;
6723;SDS011;3399;52.530;13.304;2023-04-15T09:37:47;16.20;;;13.10;;
6723;SDS011;3399;52.530;13.304;2023-04-15T09:40:14;12.63;;;11.43;;
6723;SDS011;3399;52.530;13.304;2023-04-15T09:42:55;16.13;;;13.53;;
6723;SDS011;3399;52.530;13.304;2023-04-15T09:45:21;14.83;;;12.67;;
6723;SDS011;3399;52.530;13.304;2023-04-15T09:47:47;21.63;;;12.87;;
6723;SDS011;3399;52.530;13.304;2023-04-15T09:50:15;14.93;;;12.80;;
6723;SDS011;3399;52.530;13.304;2023-04-15T09:52:41;13.93;;;12.63;;
6723;SDS011;3399;52.530;13.304;2023-04-15T09:55:07;12.97;;;11.37;;
6723;SDS011;3399;52.530;13.304;2023-04-15T09:57:36;12.43;;;11.23;;
6723;SDS011;3399;52.530;13.304;2023-04-15T10:00:03;13.63;;;12.23;;
6723;SDS011;3399;52.530;13.304;2023-04-15T10:02:30;12.93;;;11.40;;
6723;SDS011;3399;52.530;13.304;2023-04-15T10:04:56;16.00;;;12.57;;
6723;SDS011;3399;52.530;13.304;2023-04-15T10:07:22;13.43;;;12.13;;
6723;SDS011;3399;52.530;13.304;2023-04-15T10:09:48;12.57;;;11.37;;
6723;SDS011;3399;52.530;13.304;2023-04-15T10:12:17;15.20;;;12.03;;
6723;SDS011;3399;52.530;13.304;2023-04-15T10:14:44;13.53;;;12.13;;
6723;SDS011;3399;52.530;13.304;2023-04-15T10:17:17;13.17;;;11.83;;
6723;SDS011;3399;52.530;13.304;2023-04-15T10:19:46;12.93;;;11.63;;
6723;SDS011;3399;52.530;13.304;2023-04-15T10:22:13;13.93;;;12.53;;
6723;SDS011;3399;52.530;13.304;2023-04-15T10:24:39;15.73;;;12.67;;
6723;SDS011;3399;52.530;13.304;2023-04-15T10:27:05;11.93;;;10.73;;
6723;SDS011;3399;52.530;13.304;2023-04-15T10:29:31;12.57;;;11.27;;
6723;SDS011;3399;52.530;13.304;2023-04-15T10:31:58;12.57;;;11.27;;
6723;SDS011;3399;52.530;13.304;2023-04-15T10:34:24;13.10;;;11.93;;
6723;SDS011;3399;52.530;13.304;2023-04-15T10:36:51;13.90;;;12.37;;
6723;SDS011;3399;52.530;13.304;2023-04-15T10:42:08;13.47;;;12.07;;
6723;SDS011;3399;52.530;13.304;2023-04-15T10:44:36;13.83;;;12.33;;
6723;SDS011;3399;52.530;13.304;2023-04-15T10:47:09;12.53;;;11.13;;
6723;SDS011;3399;52.530;13.304;2023-04-15T10:49:44;13.17;;;11.90;;
6723;SDS011;3399;52.530;13.304;2023-04-15T10:52:11;13.43;;;12.03;;
6723;SDS011;3399;52.530;13.304;2023-04-15T10:54:39;13.10;;;11.83;;
6723;SDS011;3399;52.530;13.304;2023-04-15T10:59:32;13.87;;;12.30;;
6723;SDS011;3399;52.530;13.304;2023-04-15T11:02:02;13.63;;;11.97;;
6723;SDS011;3399;52.530;13.304;2023-04-15T11:04:51;16.63;;;11.93;;
6723;SDS011;3399;52.530;13.304;2023-04-15T11:12:42;15.63;;;11.83;;
6723;SDS011;3399;52.530;13.304;2023-04-15T11:20:42;12.60;;;11.33;;
6723;SDS011;3399;52.530;13.304;2023-04-15T11:23:09;11.43;;;10.23;;
6723;SDS011;3399;52.530;13.304;2023-04-15T11:25:35;12.40;;;11.20;;
6723;SDS011;3399;52.530;13.304;2023-04-15T11:28:04;13.67;;;12.33;;
6723;SDS011;3399;52.530;13.304;2023-04-15T11:30:31;13.50;;;12.20;;
6723;SDS011;3399;52.530;13.304;2023-04-15T11:33:02;13.90;;;11.60;;
6723;SDS011;3399;52.530;13.304;2023-04-15T11:35:28;14.13;;;11.77;;
6723;SDS011;3399;52.530;13.304;2023-04-15T11:37:54;12.13;;;10.93;;
6723;SDS011;3399;52.530;13.304;2023-04-15T11:40:24;12.77;;;11.33;;
6723;SDS011;3399;52.530;13.304;2023-04-15T11:43:12;14.27;;;11.87;;
6723;SDS011;3399;52.530;13.304;2023-04-15T11:45:56;12.63;;;10.90;;
6723;SDS011;3399;52.530;13.304;2023-04-15T11:48:24;14.57;;;12.63;;
6723;SDS011;3399;52.530;13.304;2023-04-15T11:50:54;12.03;;;10.83;;
6723;SDS011;3399;52.530;13.304;2023-04-15T11:53:46;11.30;;;10.20;;
6723;SDS011;3399;52.530;13.304;2023-04-15T11:56:22;12.90;;;10.10;;
6723;SDS011;3399;52.530;13.304;2023-04-15T11:58:56;12.47;;;11.27;;
6723;SDS011;3399;52.530;13.304;2023-04-15T12:01:32;12.03;;;10.93;;
6723;SDS011;3399;52.530;13.304;2023-04-15T12:04:00;12.60;;;10.17;;
6723;SDS011;3399;52.530;13.304;2023-04-15T12:06:31;15.43;;;11.27;;
6723;SDS011;3399;52.530;13.304;2023-04-15T12:09:11;11.70;;;10.50;;
6723;SDS011;3399;52.530;13.304;2023-04-15T12:14:23;11.63;;;10.43;;
6723;SDS011;3399;52.530;13.304;2023-04-15T12:16:50;11.53;;;10.33;;
6723;SDS011;3399;52.530;13.304;2023-04-15T12:19:27;11.90;;;10.70;;
6723;SDS011;3399;52.530;13.304;2023-04-15T12:21:57;12.00;;;10.67;;
6723;SDS011;3399;52.530;13.304;2023-04-15T12:24:24;11.10;;;10.00;;
6723;SDS011;3399;52.530;13.304;2023-04-15T12:26:54;12.40;;;10.67;;
6723;SDS011;3399;52.530;13.304;2023-04-15T12:29:24;14.13;;;11.70;;
6723;SDS011;3399;52.530;13.304;2023-04-15T12:31:54;11.07;;;9.97;;
6723;SDS011;3399;52.530;13.304;2023-04-15T12:34:26;11.13;;;10.03;;
6723;SDS011;3399;52.530;13.304;2023-04-15T12:36:57;10.67;;;9.67;;
6723;SDS011;3399;52.530;13.304;2023-04-15T12:39:24;10.93;;;9.80;;
6723;SDS011;3399;52.530;13.304;2023-04-15T12:41:51;12.43;;;10.10;;
6723;SDS011;3399;52.530;13.304;2023-04-15T12:44:17;12.23;;;11.00;;
6723;SDS011;3399;52.530;13.304;2023-04-15T12:46:42;12.10;;;10.83;;
6723;SDS011;3399;52.530;13.304;2023-04-15T12:49:08;12.60;;;10.50;;
6723;SDS011;3399;52.530;13.304;2023-04-15T12:51:33;11.30;;;10.20;;
6723;SDS011;3399;52.530;13.304;2023-04-15T12:53:59;10.90;;;9.80;;
6723;SDS011;3399;52.530;13.304;2023-04-15T12:56:25;10.97;;;9.83;;
6723;SDS011;3399;52.530;13.304;2023-04-15T12:58:51;10.60;;;9.50;;
6723;SDS011;3399;52.530;13.304;2023-04-15T13:01:16;10.73;;;9.77;;
6723;SDS011;3399;52.530;13.304;2023-04-15T13:03:42;11.73;;;10.63;;
6723;SDS011;3399;52.530;13.304;2023-04-15T13:06:08;11.97;;;10.70;;
6723;SDS011;3399;52.530;13.304;2023-04-15T13:08:33;10.30;;;9.30;;
6723;SDS011;3399;52.530;13.304;2023-04-15T13:10:59;12.53;;;9.03;;
6723;SDS011;3399;52.530;13.304;2023-04-15T13:13:24;10.67;;;9.67;;
6723;SDS011;3399;52.530;13.304;2023-04-15T13:15:51;11.33;;;9.93;;
6723;SDS011;3399;52.530;13.304;2023-04-15T13:18:16;10.70;;;9.40;;
6723;SDS011;3399;52.530;13.304;2023-04-15T13:20:42;9.97;;;8.97;;
6723;SDS011;3399;52.530;13.304;2023-04-15T13:23:08;10.60;;;9.50;;
6723;SDS011;3399;52.530;13.304;2023-04-15T13:25:33;9.80;;;8.50;;
6723;SDS011;3399;52.530;13.304;2023-04-15T13:27:59;11.40;;;9.47;;
6723;SDS011;3399;52.530;13.304;2023-04-15T13:30:25;10.07;;;9.03;;
6723;SDS011;3399;52.530;13.304;2023-04-15T13:32:51;12.47;;;8.03;;
6723;SDS011;3399;52.530;13.304;2023-04-15T13:35:17;9.17;;;8.37;;
6723;SDS011;3399;52.530;13.304;2023-04-15T13:37:43;8.80;;;7.90;;
6723;SDS011;3399;52.530;13.304;2023-04-15T13:40:09;9.67;;;8.77;;
6723;SDS011;3399;52.530;13.304;2023-04-15T13:42:35;9.77;;;8.77;;
6723;SDS011;3399;52.530;13.304;2023-04-15T13:45:01;8.77;;;7.87;;
6723;SDS011;3399;52.530;13.304;2023-04-15T13:47:27;10.23;;;9.33;;
6723;SDS011;3399;52.530;13.304;2023-04-15T13:49:52;9.80;;;8.83;;
6723;SDS011;3399;52.530;13.304;2023-04-15T13:52:20;11.67;;;8.60;;
6723;SDS011;3399;52.530;13.304;2023-04-15T13:54:45;10.03;;;8.97;;
6723;SDS011;3399;52.530;13.304;2023-04-15T13:57:11;11.23;;;9.53;;
6723;SDS011;3399;52.530;13.304;2023-04-15T13:59:37;12.27;;;10.23;;
6723;SDS011;3399;52.530;13.304;2023-04-15T14:02:02;11.63;;;9.47;;
6723;SDS011;3399;52.530;13.304;2023-04-15T14:04:29;9.90;;;9.00;;
6723;SDS011;3399;52.530;13.304;2023-04-15T14:06:55;11.17;;;10.03;;
6723;SDS011;3399;52.530;13.304;2023-04-15T14:09:21;11.10;;;10.00;;
6723;SDS011;3399;52.530;13.304;2023-04-15T14:11:48;12.10;;;10.77;;
6723;SDS011;3399;52.530;13.304;2023-04-15T14:14:14;11.20;;;9.53;;
6723;SDS011;3399;52.530;13.304;2023-04-15T14:16:39;12.20;;;10.40;;
6723;SDS011;3399;52.530;13.304;2023-04-15T14:19:05;11.20;;;10.00;;
6723;SDS011;3399;52.530;13.304;2023-04-15T14:21:30;13.20;;;10.40;;
6723;SDS011;3399;52.530;13.304;2023-04-15T14:23:56;12.57;;;11.27;;
6723;SDS011;3399;52.530;13.304;2023-04-15T14:26:22;14.03;;;9.80;;
6723;SDS011;3399;52.530;13.304;2023-04-15T14:28:48;12.13;;;10.43;;
6723;SDS011;3399;52.530;13.304;2023-04-15T14:31:13;10.90;;;9.90;;
6723;SDS011;3399;52.530;13.304;2023-04-15T14:33:39;11.47;;;10.27;;
6723;SDS011;3399;52.530;13.304;2023-04-15T14:36:05;15.27;;;12.63;;
6723;SDS011;3399;52.530;13.304;2023-04-15T14:38:34;12.93;;;11.23;;
6723;SDS011;3399;52.530;13.304;2023-04-15T14:41:06;10.57;;;9.57;;
6723;SDS011;3399;52.530;13.304;2023-04-15T14:43:33;10.13;;;9.10;;
6723;SDS011;3399;52.530;13.304;2023-04-15T14:45:59;10.00;;;9.00;;
6723;SDS011;3399;52.530;13.304;2023-04-15T14:48:24;10.53;;;9.43;;
6723;SDS011;3399;52.530;13.304;2023-04-15T14:50:50;9.97;;;8.97;;
6723;SDS011;3399;52.530;13.304;2023-04-15T14:53:16;14.53;;;11.13;;